Time;durP1;ratioP1;P1;durP2;ratioP2;P2;SDS_P1;SDS_P2;PMS_P1;PMS_P2;Temp;Humidity;BMP_temperature;BMP_pressure;BME280_temperature;BME280_humidity;BME280_pressure;Samples;Min_cycle;Max_cycle;Signal;HPM_P1;HPM_P2
2023/07/11 00:00:05;;;;;;;0.20;0.20;;;;;;;;;;1043148;28;20024;-72
2023/07/11 00:00:35;;;;;;;0.20;0.20;;;;;;;;;;1043746;28;20020;-72
2023/07/11 00:01:13;;;;;;;1.67;0.50;;;;;;;;;;1044303;28;20029;-72
2023/07/11 00:01:43;;;;;;;1.85;0.52;;;;;;;;;;1043494;28;20020;-72
2023/07/11 00:02:14;;;;;;;0.30;0.20;;;;;;;;;;1044183;28;20456;-72
2023/07/11 00:02:45;;;;;;;0.43;0.43;;;;;;;;;;1044088;28;20025;-72
2023/07/11 00:03:16;;;;;;;0.82;0.80;;;;;;;;;;1043748;28;20119;-72
2023/07/11 00:03:46;;;;;;;1.02;0.38;;;;;;;;;;1043695;28;20021;-72
2023/07/11 00:04:17;;;;;;;4.18;1.33;;;;;;;;;;1039643;28;20032;-72
2023/07/11 00:04:47;;;;;;;0.43;0.43;;;;;;;;;;1039637;28;20436;-72
2023/07/11 00:05:18;;;;;;;0.10;0.10;;;;;;;;;;1043321;28;20052;-72
2023/07/11 00:06:02;;;;;;;0.50;0.50;;;;;;;;;;1043474;28;20025;-72
2023/07/11 00:06:32;;;;;;;3.65;2.13;;;;;;;;;;1044006;28;20017;-72
2023/07/11 00:07:03;;;;;;;0.35;0.35;;;;;;;;;;1043380;28;20111;-72
2023/07/11 00:07:33;;;;;;;0.90;0.80;;;;;;;;;;1043732;28;20024;-72
2023/07/11 00:08:04;;;;;;;1.27;1.25;;;;;;;;;;1043855;28;20028;-72
2023/07/11 00:08:36;;;;;;;2.70;1.13;;;;;;;;;;1044167;28;20070;-72
2023/07/11 00:09:07;;;;;;;2.10;1.55;;;;;;;;;;1044119;28;20119;-72
2023/07/11 00:09:37;;;;;;;3.20;0.73;;;;;;;;;;1044153;28;20017;-72
2023/07/11 00:10:10;;;;;;;0.40;0.40;;;;;;;;;;1043990;28;20503;-72
2023/07/11 00:10:41;;;;;;;0.22;0.22;;;;;;;;;;1043185;28;20059;-72
2023/07/11 00:11:14;;;;;;;0.35;0.35;;;;;;;;;;1043674;28;20540;-72
2023/07/11 00:11:45;;;;;;;0.77;0.77;;;;;;;;;;1043491;28;20052;-72
2023/07/11 00:12:16;;;;;;;1.02;0.70;;;;;;;;;;1043685;28;20021;-72
2023/07/11 00:12:46;;;;;;;0.00;0.00;;;;;;;;;;1040116;28;20022;-72
2023/07/11 00:13:17;;;;;;;0.85;0.57;;;;;;;;;;1043855;28;20028;-72
2023/07/11 00:13:49;;;;;;;3.40;1.98;;;;;;;;;;1040101;28;20060;-72
2023/07/11 00:14:20;;;;;;;0.93;0.93;;;;;;;;;;1041901;28;20017;-72
2023/07/11 00:14:50;;;;;;;0.20;0.20;;;;;;;;;;1043695;28;20786;-72
2023/07/11 00:15:21;;;;;;;1.23;1.13;;;;;;;;;;1043864;28;20036;-72
2023/07/11 00:16:02;;;;;;;0.10;0.10;;;;;;;;;;1043666;28;20013;-72
2023/07/11 00:16:34;;;;;;;0.63;0.63;;;;;;;;;;1044303;28;20385;-72
2023/07/11 00:17:05;;;;;;;4.72;2.85;;;;;;;;;;1043377;28;20393;-72
2023/07/11 00:17:35;;;;;;;7.90;0.63;;;;;;;;;;1043679;28;20063;-72
2023/07/11 00:18:06;;;;;;;0.95;0.75;;;;;;;;;;1043313;28;20020;-72
2023/07/11 00:18:37;;;;;;;3.63;1.75;;;;;;;;;;1043712;28;20059;-72
2023/07/11 00:19:07;;;;;;;1.25;1.15;;;;;;;;;;1043519;28;20032;-72
2023/07/11 00:19:51;;;;;;;0.68;0.32;;;;;;;;;;1044286;28;20025;-72
2023/07/11 00:20:22;;;;;;;1.08;0.80;;;;;;;;;;1044314;28;20393;-72
2023/07/11 00:20:53;;;;;;;0.70;0.70;;;;;;;;;;1043580;28;20020;-72
2023/07/11 00:21:23;;;;;;;1.38;0.63;;;;;;;;;;1043720;28;20017;-72
2023/07/11 00:21:53;;;;;;;0.13;0.13;;;;;;;;;;1043482;28;20025;-72
2023/07/11 00:22:26;;;;;;;1.42;1.33;;;;;;;;;;1043803;28;20595;-72
2023/07/11 00:22:57;;;;;;;1.90;1.10;;;;;;;;;;1043718;28;20094;-72
2023/07/11 00:23:27;;;;;;;0.22;0.22;;;;;;;;;;1043953;28;20112;-72
2023/07/11 00:24:03;;;;;;;0.98;0.90;;;;;;;;;;1043911;28;20537;-72
2023/07/11 00:24:33;;;;;;;0.15;0.15;;;;;;;;;;1043250;28;20547;-72
2023/07/11 00:25:04;;;;;;;1.02;1.02;;;;;;;;;;1043586;28;20017;-72
2023/07/11 00:25:35;;;;;;;1.23;0.65;;;;;;;;;;1043844;28;20025;-72
2023/07/11 00:26:06;;;;;;;3.00;1.55;;;;;;;;;;1043602;28;20024;-72
2023/07/11 00:26:36;;;;;;;0.52;0.50;;;;;;;;;;1042173;28;20366;-72
2023/07/11 00:27:07;;;;;;;0.08;0.08;;;;;;;;;;1043762;28;20020;-72
2023/07/11 00:27:37;;;;;;;1.00;0.68;;;;;;;;;;1044033;28;20032;-72
2023/07/11 00:28:08;;;;;;;0.00;0.00;;;;;;;;;;1043559;28;20316;-72
2023/07/11 00:28:38;;;;;;;0.65;0.52;;;;;;;;;;1043941;28;20376;-72
2023/07/11 00:29:35;;;;;;;0.45;0.38;;;;;;;;;;1044291;28;20385;-72
2023/07/11 00:30:06;;;;;;;0.20;0.20;;;;;;;;;;1041473;28;20028;-71
2023/07/11 00:30:36;;;;;;;0.25;0.25;;;;;;;;;;1044015;28;20055;-71
2023/07/11 00:31:07;;;;;;;0.80;0.80;;;;;;;;;;1044192;28;20472;-71
2023/07/11 00:31:37;;;;;;;5.82;3.22;;;;;;;;;;1044123;28;20513;-72
2023/07/11 00:32:08;;;;;;;3.70;2.63;;;;;;;;;;1043665;28;20037;-72
2023/07/11 00:32:38;;;;;;;0.38;0.38;;;;;;;;;;1043955;28;20025;-72
2023/07/11 00:33:09;;;;;;;10.20;4.72;;;;;;;;;;1044053;28;20359;-72
2023/07/11 00:33:39;;;;;;;4.05;1.20;;;;;;;;;;1043877;28;20119;-72
2023/07/11 00:34:10;;;;;;;3.17;2.05;;;;;;;;;;1043762;28;20045;-72
2023/07/11 00:34:40;;;;;;;9.38;2.20;;;;;;;;;;1043747;28;20017;-72
2023/07/11 00:35:11;;;;;;;7.43;2.38;;;;;;;;;;1043684;28;20025;-72
2023/07/11 00:35:44;;;;;;;4.90;1.85;;;;;;;;;;1043580;28;20392;-72
2023/07/11 00:36:14;;;;;;;3.90;1.58;;;;;;;;;;1043523;28;20021;-72
2023/07/11 00:36:45;;;;;;;3.72;2.15;;;;;;;;;;1043696;28;20392;-72
2023/07/11 00:37:15;;;;;;;1.30;1.20;;;;;;;;;;1043807;28;20051;-72
2023/07/11 00:37:46;;;;;;;3.60;1.05;;;;;;;;;;1043824;28;20085;-72
2023/07/11 00:38:16;;;;;;;1.20;1.05;;;;;;;;;;1044133;28;20024;-72
2023/07/11 00:38:46;;;;;;;4.50;2.30;;;;;;;;;;1043892;28;20012;-72
2023/07/11 00:39:19;;;;;;;1.10;0.80;;;;;;;;;;1044137;28;20033;-72
2023/07/11 00:39:50;;;;;;;1.30;0.60;;;;;;;;;;1043503;28;20024;-72
2023/07/11 00:40:20;;;;;;;3.50;2.35;;;;;;;;;;1044043;28;20024;-72
2023/07/11 00:40:51;;;;;;;1.67;0.65;;;;;;;;;;1043549;28;20373;-72
2023/07/11 00:41:21;;;;;;;1.02;0.95;;;;;;;;;;1043797;28;20492;-72
2023/07/11 00:41:51;;;;;;;1.45;1.35;;;;;;;;;;1043291;28;20029;-72
2023/07/11 00:42:22;;;;;;;0.68;0.65;;;;;;;;;;1043670;28;20029;-72
2023/07/11 00:42:53;;;;;;;1.65;0.60;;;;;;;;;;1043239;28;20028;-72
2023/07/11 00:43:23;;;;;;;5.07;2.90;;;;;;;;;;1043721;28;20021;-72
2023/07/11 00:43:54;;;;;;;1.65;1.45;;;;;;;;;;1043400;28;20032;-72
2023/07/11 00:44:25;;;;;;;0.95;0.50;;;;;;;;;;1044129;28;20423;-72
2023/07/11 00:45:01;;;;;;;2.78;1.83;;;;;;;;;;1042856;28;20047;-72
2023/07/11 00:45:50;;;;;;;0.90;0.90;;;;;;;;;;1043888;28;20028;-72
2023/07/11 00:46:20;;;;;;;2.03;1.23;;;;;;;;;;1044040;28;20099;-72
2023/07/11 00:46:51;;;;;;;1.92;0.65;;;;;;;;;;1043991;28;20021;-72
2023/07/11 00:47:23;;;;;;;1.38;1.17;;;;;;;;;;1044065;28;20036;-72
2023/07/11 00:47:54;;;;;;;0.60;0.55;;;;;;;;;;1043634;28;20021;-72
2023/07/11 00:48:24;;;;;;;2.97;1.33;;;;;;;;;;1044261;28;20032;-72
2023/07/11 00:48:57;;;;;;;0.95;0.95;;;;;;;;;;1043618;28;20025;-72
2023/07/11 00:49:27;;;;;;;4.07;1.60;;;;;;;;;;1042904;28;20111;-72
2023/07/11 00:50:06;;;;;;;2.40;1.95;;;;;;;;;;1038143;28;20549;-72
2023/07/11 00:50:38;;;;;;;2.40;1.40;;;;;;;;;;1040931;28;20466;-72
2023/07/11 00:51:10;;;;;;;1.02;0.93;;;;;;;;;;1043300;28;20122;-72
2023/07/11 00:51:48;;;;;;;0.52;0.52;;;;;;;;;;1042616;28;20049;-72
2023/07/11 00:52:19;;;;;;;0.28;0.28;;;;;;;;;;1043514;28;20067;-72
2023/07/11 00:52:49;;;;;;;0.38;0.38;;;;;;;;;;1043449;28;20068;-72
2023/07/11 00:53:20;;;;;;;1.70;1.13;;;;;;;;;;1044077;28;20025;-72
2023/07/11 00:53:51;;;;;;;0.65;0.65;;;;;;;;;;1043857;28;20028;-72
2023/07/11 00:54:23;;;;;;;3.15;1.02;;;;;;;;;;1043680;28;20572;-72
2023/07/11 00:54:56;;;;;;;2.38;1.58;;;;;;;;;;1043662;28;20025;-72
2023/07/11 00:55:27;;;;;;;0.55;0.55;;;;;;;;;;1043304;28;20024;-72
2023/07/11 00:56:00;;;;;;;2.08;1.25;;;;;;;;;;1043437;28;20020;-72
2023/07/11 00:56:33;;;;;;;6.50;1.80;;;;;;;;;;1043746;28;20024;-72
2023/07/11 00:57:07;;;;;;;0.65;0.65;;;;;;;;;;1043475;28;20017;-72
2023/07/11 00:57:39;;;;;;;0.20;0.20;;;;;;;;;;1043624;28;20514;-72
2023/07/11 00:58:10;;;;;;;0.20;0.20;;;;;;;;;;1043750;28;20107;-72
2023/07/11 00:58:41;;;;;;;0.20;0.20;;;;;;;;;;1043572;28;20070;-72
2023/07/11 00:59:14;;;;;;;0.00;0.00;;;;;;;;;;1043750;28;20017;-72
2023/07/11 00:59:45;;;;;;;0.55;0.32;;;;;;;;;;1043243;28;20021;-72
2023/07/11 01:00:16;;;;;;;1.35;0.52;;;;;;;;;;1043529;28;20025;-72
2023/07/11 01:00:47;;;;;;;3.15;1.77;;;;;;;;;;1043383;28;20036;-72
2023/07/11 01:01:18;;;;;;;1.45;0.95;;;;;;;;;;1042488;28;20028;-72
2023/07/11 01:01:52;;;;;;;2.53;0.90;;;;;;;;;;1043211;28;20020;-72
2023/07/11 01:02:25;;;;;;;0.70;0.70;;;;;;;;;;1043926;28;20108;-72
2023/07/11 01:02:56;;;;;;;1.15;1.05;;;;;;;;;;1043854;28;20029;-72
2023/07/11 01:03:26;;;;;;;2.13;0.95;;;;;;;;;;1042917;28;20025;-72
2023/07/11 01:03:57;;;;;;;3.63;1.23;;;;;;;;;;1042522;28;20075;-72
2023/07/11 01:04:28;;;;;;;0.85;0.52;;;;;;;;;;1044113;28;20025;-72
2023/07/11 01:04:59;;;;;;;1.38;1.20;;;;;;;;;;1043734;28;20025;-72
2023/07/11 01:05:29;;;;;;;1.10;0.70;;;;;;;;;;1043587;28;20028;-72
2023/07/11 01:06:00;;;;;;;1.00;0.77;;;;;;;;;;1043118;28;20029;-72
2023/07/11 01:06:30;;;;;;;22.92;1.60;;;;;;;;;;1042491;28;20029;-72
2023/07/11 01:07:02;;;;;;;6.97;1.00;;;;;;;;;;1043551;28;20025;-72
2023/07/11 01:07:35;;;;;;;1.13;1.05;;;;;;;;;;1044078;28;20072;-72
2023/07/11 01:08:06;;;;;;;12.25;1.55;;;;;;;;;;1043241;28;20021;-72
2023/07/11 01:08:36;;;;;;;4.10;1.35;;;;;;;;;;1043911;28;20057;-72
2023/07/11 01:09:07;;;;;;;0.90;0.30;;;;;;;;;;1044002;28;20455;-72
2023/07/11 01:09:37;;;;;;;0.10;0.10;;;;;;;;;;1043830;28;20501;-72
2023/07/11 01:10:08;;;;;;;0.30;0.30;;;;;;;;;;1043893;28;20471;-72
2023/07/11 01:10:38;;;;;;;2.05;1.75;;;;;;;;;;1043820;28;20423;-72
2023/07/11 01:11:09;;;;;;;4.65;1.35;;;;;;;;;;1044075;28;20025;-72
2023/07/11 01:11:56;;;;;;;2.13;0.80;;;;;;;;;;1043987;28;20032;-72
2023/07/11 01:12:27;;;;;;;1.85;1.30;;;;;;;;;;1041489;28;20021;-72
2023/07/11 01:12:58;;;;;;;0.40;0.30;;;;;;;;;;1041386;28;20582;-72
2023/07/11 01:13:29;;;;;;;1.30;1.15;;;;;;;;;;1041966;28;20029;-72
2023/07/11 01:13:59;;;;;;;0.10;0.10;;;;;;;;;;1043238;28;20052;-72
2023/07/11 01:14:30;;;;;;;2.40;0.50;;;;;;;;;;1043291;28;20074;-72
2023/07/11 01:15:00;;;;;;;0.10;0.10;;;;;;;;;;1043639;28;20017;-72
2023/07/11 01:15:31;;;;;;;2.25;0.57;;;;;;;;;;1043909;28;20035;-72
2023/07/11 01:16:01;;;;;;;0.85;0.85;;;;;;;;;;1043280;28;20024;-72
2023/07/11 01:16:31;;;;;;;0.77;0.70;;;;;;;;;;1043575;28;20150;-72
2023/07/11 01:17:18;;;;;;;1.83;0.85;;;;;;;;;;1043552;28;20048;-72
2023/07/11 01:17:48;;;;;;;0.20;0.20;;;;;;;;;;1043431;28;20449;-72
2023/07/11 01:18:19;;;;;;;0.55;0.55;;;;;;;;;;1043549;28;20021;-72
2023/07/11 01:18:49;;;;;;;1.58;0.85;;;;;;;;;;1042920;28;20032;-72
2023/07/11 01:19:20;;;;;;;2.00;1.70;;;;;;;;;;1043609;28;20032;-72
2023/07/11 01:19:51;;;;;;;4.03;0.68;;;;;;;;;;1042996;28;20570;-72
2023/07/11 01:20:25;;;;;;;4.55;0.77;;;;;;;;;;1043387;28;20033;-72
2023/07/11 01:20:57;;;;;;;0.20;0.20;;;;;;;;;;1042910;28;20116;-72
2023/07/11 01:21:27;;;;;;;0.77;0.52;;;;;;;;;;1043205;28;20449;-72
2023/07/11 01:21:58;;;;;;;0.73;0.73;;;;;;;;;;1043163;28;20028;-72
2023/07/11 01:22:29;;;;;;;1.88;1.60;;;;;;;;;;1043628;28;20462;-72
2023/07/11 01:23:00;;;;;;;2.10;1.38;;;;;;;;;;1043603;28;21539;-72
2023/07/11 01:23:31;;;;;;;1.48;1.38;;;;;;;;;;1043886;28;20074;-72
2023/07/11 01:24:02;;;;;;;1.17;0.70;;;;;;;;;;1043234;28;20535;-72
2023/07/11 01:24:32;;;;;;;0.30;0.30;;;;;;;;;;1042786;28;20108;-72
2023/07/11 01:25:08;;;;;;;0.10;0.10;;;;;;;;;;1043145;28;20028;-72
2023/07/11 01:25:39;;;;;;;0.65;0.40;;;;;;;;;;1042717;28;20033;-72
2023/07/11 01:26:11;;;;;;;2.58;0.93;;;;;;;;;;1043439;28;20036;-72
2023/07/11 01:26:42;;;;;;;0.00;0.00;;;;;;;;;;1043076;28;20025;-72
2023/07/11 01:27:12;;;;;;;1.65;1.35;;;;;;;;;;1042007;28;20104;-72
2023/07/11 01:27:45;;;;;;;2.00;1.02;;;;;;;;;;1043443;28;20033;-72
2023/07/11 01:28:15;;;;;;;3.83;0.93;;;;;;;;;;1043342;28;20061;-72
2023/07/11 01:28:46;;;;;;;1.17;0.73;;;;;;;;;;1042960;28;20029;-72
2023/07/11 01:29:16;;;;;;;0.50;0.35;;;;;;;;;;1043187;28;20020;-72
2023/07/11 01:29:48;;;;;;;1.17;1.05;;;;;;;;;;1042926;28;20079;-72
2023/07/11 01:30:20;;;;;;;1.00;0.63;;;;;;;;;;1042833;28;20151;-72
2023/07/11 01:30:50;;;;;;;0.35;0.35;;;;;;;;;;1043439;28;20021;-72
2023/07/11 01:31:21;;;;;;;0.30;0.20;;;;;;;;;;1043717;28;20013;-73
2023/07/11 01:31:52;;;;;;;1.27;0.80;;;;;;;;;;1043379;28;20079;-73
2023/07/11 01:32:22;;;;;;;1.33;1.05;;;;;;;;;;1043851;28;20415;-73
2023/07/11 01:32:52;;;;;;;0.63;0.63;;;;;;;;;;1043111;28;20021;-73
2023/07/11 01:33:24;;;;;;;2.90;0.70;;;;;;;;;;1043416;28;20488;-73
2023/07/11 01:33:55;;;;;;;0.65;0.65;;;;;;;;;;1043198;28;20021;-73
2023/07/11 01:34:25;;;;;;;0.45;0.45;;;;;;;;;;1043385;28;20025;-73
2023/07/11 01:34:56;;;;;;;0.85;0.82;;;;;;;;;;1043406;28;20025;-72
2023/07/11 01:35:26;;;;;;;2.40;1.95;;;;;;;;;;1043232;28;20081;-72
2023/07/11 01:35:57;;;;;;;8.48;2.15;;;;;;;;;;1043313;28;20354;-72
2023/07/11 01:36:27;;;;;;;0.30;0.30;;;;;;;;;;1043279;28;20391;-72
2023/07/11 01:36:58;;;;;;;0.13;0.13;;;;;;;;;;1043724;28;20025;-72
2023/07/11 01:37:28;;;;;;;0.40;0.40;;;;;;;;;;1043821;28;20132;-72
2023/07/11 01:37:59;;;;;;;1.85;0.22;;;;;;;;;;1043515;28;20017;-72
2023/07/11 01:38:29;;;;;;;1.27;1.17;;;;;;;;;;1043808;28;20109;-73
2023/07/11 01:39:00;;;;;;;5.30;1.80;;;;;;;;;;1043082;28;20032;-73
2023/07/11 01:39:30;;;;;;;0.43;0.43;;;;;;;;;;1044001;28;20061;-73
2023/07/11 01:40:01;;;;;;;0.95;0.65;;;;;;;;;;1043293;28;20027;-73
2023/07/11 01:40:32;;;;;;;1.23;0.22;;;;;;;;;;1042735;28;20028;-73
2023/07/11 01:41:02;;;;;;;0.50;0.38;;;;;;;;;;1041722;28;20520;-73
2023/07/11 01:41:33;;;;;;;1.88;1.02;;;;;;;;;;1042423;28;20025;-73
2023/07/11 01:42:04;;;;;;;0.65;0.40;;;;;;;;;;1041703;28;20013;-72
2023/07/11 01:42:35;;;;;;;0.35;0.32;;;;;;;;;;1039982;28;20033;-72
2023/07/11 01:43:06;;;;;;;0.03;0.03;;;;;;;;;;1043028;28;20502;-72
2023/07/11 01:43:36;;;;;;;0.00;0.00;;;;;;;;;;1042781;28;20433;-72
2023/07/11 01:44:08;;;;;;;2.00;0.52;;;;;;;;;;1043264;28;20044;-72
2023/07/11 01:44:38;;;;;;;1.38;0.63;;;;;;;;;;1042803;28;20025;-72
2023/07/11 01:45:09;;;;;;;0.55;0.55;;;;;;;;;;1040693;28;20039;-72
2023/07/11 01:45:40;;;;;;;1.58;1.42;;;;;;;;;;1040307;28;20471;-72
2023/07/11 01:46:11;;;;;;;0.43;0.43;;;;;;;;;;1040435;28;20108;-72
2023/07/11 01:46:41;;;;;;;0.45;0.32;;;;;;;;;;1043065;28;20025;-72
2023/07/11 01:47:12;;;;;;;2.25;0.68;;;;;;;;;;1043133;28;20025;-72
2023/07/11 01:47:42;;;;;;;0.88;0.43;;;;;;;;;;1042779;28;20112;-72
2023/07/11 01:48:12;;;;;;;1.20;0.85;;;;;;;;;;1043192;28;20051;-72
2023/07/11 01:48:43;;;;;;;0.22;0.22;;;;;;;;;;1043221;28;20163;-72
2023/07/11 01:49:13;;;;;;;0.47;0.47;;;;;;;;;;1043347;28;20021;-72
2023/07/11 01:49:44;;;;;;;0.10;0.10;;;;;;;;;;1043360;28;20033;-72
2023/07/11 01:50:14;;;;;;;2.75;0.90;;;;;;;;;;1043632;28;20009;-72
2023/07/11 01:50:45;;;;;;;0.60;0.40;;;;;;;;;;1040897;28;20025;-72
2023/07/11 01:51:15;;;;;;;0.35;0.35;;;;;;;;;;1043324;28;20048;-72
2023/07/11 01:51:46;;;;;;;0.52;0.50;;;;;;;;;;1041765;28;20472;-72
2023/07/11 01:52:18;;;;;;;4.63;1.30;;;;;;;;;;1042521;28;20017;-72
2023/07/11 01:52:48;;;;;;;0.00;0.00;;;;;;;;;;1042730;28;20035;-72
2023/07/11 01:53:19;;;;;;;2.10;0.30;;;;;;;;;;1042499;28;20024;-72
2023/07/11 01:53:49;;;;;;;0.60;0.60;;;;;;;;;;1043083;28;20032;-72
2023/07/11 01:54:19;;;;;;;0.85;0.77;;;;;;;;;;1041859;28;20166;-72
2023/07/11 01:54:50;;;;;;;4.05;1.02;;;;;;;;;;1042402;28;20580;-72
2023/07/11 01:55:21;;;;;;;1.70;1.52;;;;;;;;;;1042257;28;20135;-72
2023/07/11 01:55:58;;;;;;;1.48;1.23;;;;;;;;;;1042562;28;20025;-72
2023/07/11 01:56:29;;;;;;;1.20;1.05;;;;;;;;;;1042198;28;20028;-72
2023/07/11 01:56:59;;;;;;;0.93;0.82;;;;;;;;;;1041099;28;20115;-72
2023/07/11 01:57:30;;;;;;;2.10;0.95;;;;;;;;;;1042896;28;20035;-73
2023/07/11 01:58:00;;;;;;;9.63;2.28;;;;;;;;;;1043617;28;20101;-73
2023/07/11 01:58:31;;;;;;;2.03;1.38;;;;;;;;;;1043419;28;20108;-73
2023/07/11 01:59:02;;;;;;;0.25;0.20;;;;;;;;;;1043353;28;20110;-73
2023/07/11 01:59:32;;;;;;;0.73;0.73;;;;;;;;;;1043800;28;20451;-73
2023/07/11 02:00:03;;;;;;;2.90;1.08;;;;;;;;;;1043157;28;20534;-72
2023/07/11 02:00:33;;;;;;;0.98;0.30;;;;;;;;;;1042789;28;20477;-72
2023/07/11 02:01:04;;;;;;;1.05;0.68;;;;;;;;;;1042038;28;20530;-73
2023/07/11 02:01:34;;;;;;;0.52;0.40;;;;;;;;;;1042666;28;20086;-73
2023/07/11 02:02:05;;;;;;;0.10;0.10;;;;;;;;;;1043274;28;20057;-73
2023/07/11 02:02:36;;;;;;;1.02;0.80;;;;;;;;;;1043861;28;20029;-73
2023/07/11 02:03:06;;;;;;;0.85;0.50;;;;;;;;;;1044032;28;20625;-73
2023/07/11 02:03:37;;;;;;;0.80;0.63;;;;;;;;;;1043247;28;20025;-73
2023/07/11 02:04:07;;;;;;;1.35;0.70;;;;;;;;;;1043517;28;20373;-73
2023/07/11 02:04:38;;;;;;;2.47;1.00;;;;;;;;;;1043595;28;20336;-73
2023/07/11 02:05:08;;;;;;;0.45;0.25;;;;;;;;;;1042914;28;20032;-73
2023/07/11 02:05:39;;;;;;;1.13;0.55;;;;;;;;;;1042928;28;20687;-73
2023/07/11 02:06:10;;;;;;;0.95;0.75;;;;;;;;;;1038222;28;20059;-73
2023/07/11 02:06:40;;;;;;;1.88;0.85;;;;;;;;;;1039104;28;20075;-73
2023/07/11 02:07:11;;;;;;;1.80;1.65;;;;;;;;;;1041688;28;20037;-73
2023/07/11 02:07:41;;;;;;;0.45;0.43;;;;;;;;;;1041061;28;20037;-72
2023/07/11 02:08:12;;;;;;;1.60;1.20;;;;;;;;;;1041686;28;20025;-72
2023/07/11 02:08:42;;;;;;;0.20;0.20;;;;;;;;;;1042854;28;20162;-72
2023/07/11 02:09:13;;;;;;;5.97;0.65;;;;;;;;;;1042215;28;20119;-72
2023/07/11 02:09:43;;;;;;;0.22;0.17;;;;;;;;;;1043285;28;20029;-72
2023/07/11 02:10:14;;;;;;;0.63;0.63;;;;;;;;;;1043222;28;20572;-72
2023/07/11 02:10:44;;;;;;;0.45;0.45;;;;;;;;;;1043325;28;20024;-72
2023/07/11 02:11:15;;;;;;;0.55;0.47;;;;;;;;;;1043744;28;20021;-72
2023/07/11 02:11:45;;;;;;;4.03;0.45;;;;;;;;;;1042950;28;20086;-72
2023/07/11 02:12:16;;;;;;;0.93;0.93;;;;;;;;;;1043498;28;20029;-72
2023/07/11 02:12:46;;;;;;;0.17;0.17;;;;;;;;;;1043768;28;20472;-72
2023/07/11 02:13:18;;;;;;;1.10;1.10;;;;;;;;;;1040870;28;20491;-72
2023/07/11 02:13:48;;;;;;;4.35;2.42;;;;;;;;;;1042314;28;20033;-72
2023/07/11 02:14:20;;;;;;;0.43;0.43;;;;;;;;;;1044412;28;20445;-72
2023/07/11 02:14:50;;;;;;;1.23;1.13;;;;;;;;;;1044245;28;20035;-72
2023/07/11 02:15:20;;;;;;;1.17;1.02;;;;;;;;;;1043631;28;20016;-72
2023/07/11 02:15:51;;;;;;;0.15;0.15;;;;;;;;;;1042955;28;20028;-72
2023/07/11 02:16:21;;;;;;;0.22;0.10;;;;;;;;;;1044699;28;20077;-72
2023/07/11 02:16:53;;;;;;;0.50;0.50;;;;;;;;;;1043117;28;20074;-72
2023/07/11 02:17:23;;;;;;;1.08;0.65;;;;;;;;;;1047128;28;20617;-72
2023/07/11 02:17:55;;;;;;;3.55;1.08;;;;;;;;;;1046179;28;20021;-73
2023/07/11 02:18:25;;;;;;;0.30;0.30;;;;;;;;;;1047642;28;20029;-73
2023/07/11 02:18:55;;;;;;;0.70;0.70;;;;;;;;;;1046471;28;20016;-73
2023/07/11 02:19:26;;;;;;;0.38;0.38;;;;;;;;;;1043439;28;20480;-73
2023/07/11 02:19:56;;;;;;;0.40;0.40;;;;;;;;;;1043694;28;20559;-73
2023/07/11 02:20:27;;;;;;;1.30;1.15;;;;;;;;;;1043472;28;20029;-73
2023/07/11 02:20:58;;;;;;;0.75;0.68;;;;;;;;;;1041824;28;20025;-73
2023/07/11 02:21:28;;;;;;;0.10;0.10;;;;;;;;;;1043624;28;20025;-73
2023/07/11 02:21:59;;;;;;;3.72;1.15;;;;;;;;;;1042966;28;20028;-73
2023/07/11 02:22:29;;;;;;;2.15;1.20;;;;;;;;;;1044158;28;20028;-72
2023/07/11 02:23:01;;;;;;;1.92;1.27;;;;;;;;;;1044429;28;20032;-72
2023/07/11 02:23:32;;;;;;;0.52;0.52;;;;;;;;;;1043400;28;20020;-72
2023/07/11 02:24:03;;;;;;;0.50;0.38;;;;;;;;;;1042640;28;20025;-72
2023/07/11 02:24:33;;;;;;;1.45;0.90;;;;;;;;;;1042294;28;20025;-72
2023/07/11 02:25:04;;;;;;;0.13;0.13;;;;;;;;;;1042485;28;20083;-72
2023/07/11 02:25:34;;;;;;;1.90;0.70;;;;;;;;;;1041763;28;20029;-72
2023/07/11 02:26:04;;;;;;;0.20;0.20;;;;;;;;;;1042279;28;20028;-72
2023/07/11 02:26:35;;;;;;;0.85;0.52;;;;;;;;;;1043970;28;20028;-72
2023/07/11 02:27:06;;;;;;;0.82;0.47;;;;;;;;;;1042518;28;20013;-72
2023/07/11 02:27:37;;;;;;;0.52;0.52;;;;;;;;;;1042339;28;20029;-72
2023/07/11 02:28:07;;;;;;;1.38;0.90;;;;;;;;;;1041833;28;20029;-72
2023/07/11 02:28:38;;;;;;;0.75;0.60;;;;;;;;;;1043415;28;20037;-73
2023/07/11 02:29:09;;;;;;;1.13;0.60;;;;;;;;;;1042920;28;20444;-77
2023/07/11 02:29:39;;;;;;;0.22;0.22;;;;;;;;;;1044156;28;20362;-76
2023/07/11 02:30:10;;;;;;;0.35;0.28;;;;;;;;;;1043397;28;20136;-74
2023/07/11 02:30:40;;;;;;;0.28;0.28;;;;;;;;;;1041986;28;20052;-73
2023/07/11 02:31:11;;;;;;;1.02;0.73;;;;;;;;;;1040822;28;20524;-73
2023/07/11 02:31:42;;;;;;;0.30;0.30;;;;;;;;;;1043607;28;20035;-73
2023/07/11 02:32:12;;;;;;;1.00;0.88;;;;;;;;;;1043023;28;20144;-73
2023/07/11 02:32:42;;;;;;;0.75;0.55;;;;;;;;;;1043890;28;20025;-73
2023/07/11 02:33:13;;;;;;;0.25;0.20;;;;;;;;;;1043528;28;20032;-73
2023/07/11 02:33:46;;;;;;;0.20;0.20;;;;;;;;;;1044150;28;20029;-73
2023/07/11 02:34:16;;;;;;;0.75;0.75;;;;;;;;;;1043178;28;20120;-73
2023/07/11 02:34:47;;;;;;;0.05;0.05;;;;;;;;;;1043523;28;20079;-73
2023/07/11 02:35:17;;;;;;;0.85;0.77;;;;;;;;;;1043229;28;20027;-73
2023/07/11 02:35:48;;;;;;;0.40;0.40;;;;;;;;;;1042842;28;20033;-73
2023/07/11 02:36:18;;;;;;;6.18;0.28;;;;;;;;;;1044042;28;20049;-73
2023/07/11 02:36:49;;;;;;;3.13;1.92;;;;;;;;;;1043277;28;20056;-73
2023/07/11 02:37:19;;;;;;;1.08;0.98;;;;;;;;;;1042800;28;20079;-73
2023/07/11 02:37:50;;;;;;;7.10;3.15;;;;;;;;;;1042466;28;20024;-73
2023/07/11 02:38:20;;;;;;;1.17;0.73;;;;;;;;;;1043185;28;20021;-73
2023/07/11 02:38:51;;;;;;;0.95;0.30;;;;;;;;;;1042973;28;20507;-73
2023/07/11 02:39:21;;;;;;;1.08;0.80;;;;;;;;;;1042556;28;20021;-73
2023/07/11 02:39:52;;;;;;;1.02;0.85;;;;;;;;;;1041239;28;20067;-74
2023/07/11 02:40:22;;;;;;;5.07;1.95;;;;;;;;;;1043081;28;20159;-75
2023/07/11 02:40:53;;;;;;;1.60;0.80;;;;;;;;;;1043637;28;20052;-76
2023/07/11 02:41:24;;;;;;;0.47;0.38;;;;;;;;;;1043631;28;20052;-75
2023/07/11 02:41:55;;;;;;;2.70;1.80;;;;;;;;;;1040251;28;20060;-75
2023/07/11 02:42:25;;;;;;;3.30;0.50;;;;;;;;;;1044708;28;20035;-75
2023/07/11 02:42:55;;;;;;;1.25;0.80;;;;;;;;;;1042572;28;20054;-75
2023/07/11 02:43:26;;;;;;;3.70;0.85;;;;;;;;;;1041909;28;20029;-74
2023/07/11 02:43:57;;;;;;;0.20;0.20;;;;;;;;;;1043001;28;20028;-75
2023/07/11 02:44:27;;;;;;;3.42;1.77;;;;;;;;;;1043384;28;20033;-74
2023/07/11 02:44:57;;;;;;;1.83;0.85;;;;;;;;;;1043858;28;20029;-74
2023/07/11 02:45:28;;;;;;;1.35;1.00;;;;;;;;;;1043760;28;20033;-74
2023/07/11 02:45:58;;;;;;;1.50;0.90;;;;;;;;;;1042265;28;20037;-75
2023/07/11 02:46:29;;;;;;;0.88;0.68;;;;;;;;;;1044058;28;20036;-75
2023/07/11 02:46:59;;;;;;;1.27;0.20;;;;;;;;;;1043146;28;20490;-74
2023/07/11 02:47:30;;;;;;;1.25;1.08;;;;;;;;;;1041979;28;20029;-75
2023/07/11 02:48:00;;;;;;;0.30;0.25;;;;;;;;;;1043275;28;20033;-75
2023/07/11 02:48:31;;;;;;;3.60;2.28;;;;;;;;;;1042762;28;20075;-74
2023/07/11 02:49:01;;;;;;;0.52;0.52;;;;;;;;;;1043934;28;20163;-75
2023/07/11 02:49:32;;;;;;;0.00;0.00;;;;;;;;;;1042591;28;20059;-78
2023/07/11 02:50:02;;;;;;;3.15;1.08;;;;;;;;;;1042125;28;20055;-77
2023/07/11 02:50:33;;;;;;;0.93;0.93;;;;;;;;;;1041675;28;20060;-77
2023/07/11 02:51:03;;;;;;;0.32;0.32;;;;;;;;;;1042445;28;20098;-76
2023/07/11 02:51:35;;;;;;;1.17;0.70;;;;;;;;;;1041912;28;20013;-76
2023/07/11 02:52:06;;;;;;;0.05;0.05;;;;;;;;;;1042731;28;20032;-78
2023/07/11 02:52:37;;;;;;;0.20;0.20;;;;;;;;;;1039412;28;20075;-76
2023/07/11 02:53:08;;;;;;;1.63;1.52;;;;;;;;;;1037991;28;20194;-76
2023/07/11 02:53:38;;;;;;;0.20;0.10;;;;;;;;;;1039041;28;21745;-76
2023/07/11 02:54:09;;;;;;;0.32;0.32;;;;;;;;;;1042109;28;20377;-78
2023/07/11 02:54:39;;;;;;;1.60;0.95;;;;;;;;;;1043374;28;20025;-78
2023/07/11 02:55:10;;;;;;;12.75;2.92;;;;;;;;;;1043040;28;20032;-77
2023/07/11 02:55:40;;;;;;;2.63;1.50;;;;;;;;;;1037810;28;20033;-76
2023/07/11 02:56:11;;;;;;;1.35;1.20;;;;;;;;;;1037049;28;20024;-78
2023/07/11 02:56:41;;;;;;;3.30;2.20;;;;;;;;;;1039891;28;20025;-81
2023/07/11 02:57:12;;;;;;;1.55;1.13;;;;;;;;;;1040998;28;20019;-78
2023/07/11 02:57:43;;;;;;;2.40;1.77;;;;;;;;;;1041992;28;20075;-83
2023/07/11 02:58:13;;;;;;;2.47;2.28;;;;;;;;;;1041534;28;20473;-81
2023/07/11 02:58:44;;;;;;;0.80;0.80;;;;;;;;;;1039685;28;20129;-81
2023/07/11 02:59:14;;;;;;;2.88;1.27;;;;;;;;;;1043518;28;20483;-78
2023/07/11 02:59:46;;;;;;;0.32;0.32;;;;;;;;;;1044276;28;20032;-80
2023/07/11 03:00:16;;;;;;;0.57;0.52;;;;;;;;;;1040040;28;20063;-78
2023/07/11 03:00:47;;;;;;;7.28;2.65;;;;;;;;;;1047956;23;20075;-77
2023/07/11 03:01:18;;;;;;;0.63;0.63;;;;;;;;;;1038630;28;20433;-76
2023/07/11 03:01:49;;;;;;;0.47;0.47;;;;;;;;;;1037811;28;20115;-76
2023/07/11 03:02:19;;;;;;;1.27;0.70;;;;;;;;;;1042955;28;20139;-77
2023/07/11 03:02:50;;;;;;;2.35;1.25;;;;;;;;;;1014140;28;20072;-79
2023/07/11 03:03:20;;;;;;;0.00;0.00;;;;;;;;;;1042466;28;20009;-76
2023/07/11 03:03:50;;;;;;;0.45;0.32;;;;;;;;;;1043334;28;20081;-76
2023/07/11 03:04:21;;;;;;;1.55;0.50;;;;;;;;;;1043640;28;20028;-76
2023/07/11 03:04:51;;;;;;;1.15;0.28;;;;;;;;;;1037777;28;20327;-79
2023/07/11 03:05:22;;;;;;;0.30;0.30;;;;;;;;;;1043521;28;20104;-85
2023/07/11 03:05:54;;;;;;;4.18;2.42;;;;;;;;;;1038423;28;20120;-77
2023/07/11 03:06:24;;;;;;;0.40;0.40;;;;;;;;;;1039259;28;20025;-78
2023/07/11 03:06:56;;;;;;;2.33;1.10;;;;;;;;;;1038887;28;20030;-78